sensor_id;sensor_type;location;lat;lon;timestamp;temperature;humidity
75517;DHT22;64097;52.548;13.406;2023-07-29T06:02:20;24.00;68.60
75517;DHT22;64097;52.548;13.406;2023-07-29T06:04:46;24.00;68.70
75517;DHT22;64097;52.548;13.406;2023-07-29T06:07:12;24.00;68.70
75517;DHT22;64097;52.548;13.406;2023-07-29T06:09:39;24.10;68.80
75517;DHT22;64097;52.548;13.406;2023-07-29T06:12:06;24.10;68.80
75517;DHT22;64097;52.548;13.406;2023-07-29T06:14:31;24.20;68.80
75517;DHT22;64097;52.548;13.406;2023-07-29T06:16:57;24.20;68.60
75517;DHT22;64097;52.548;13.406;2023-07-29T06:19:23;24.20;68.50
75517;DHT22;64097;52.548;13.406;2023-07-29T06:21:48;24.30;68.50
75517;DHT22;64097;52.548;13.406;2023-07-29T06:24:14;24.30;68.40
75517;DHT22;64097;52.548;13.406;2023-07-29T06:26:40;24.30;68.40
75517;DHT22;64097;52.548;13.406;2023-07-29T06:29:05;24.30;68.20
75517;DHT22;64097;52.548;13.406;2023-07-29T06:31:31;24.40;68.20
75517;DHT22;64097;52.548;13.406;2023-07-29T06:33:58;24.40;68.20
75517;DHT22;64097;52.548;13.406;2023-07-29T06:36:24;24.40;68.10
75517;DHT22;64097;52.548;13.406;2023-07-29T06:38:49;24.50;68.00
75517;DHT22;64097;52.548;13.406;2023-07-29T06:41:15;24.50;68.10
75517;DHT22;64097;52.548;13.406;2023-07-29T06:43:42;24.50;68.00
75517;DHT22;64097;52.548;13.406;2023-07-29T06:46:07;24.50;67.90
75517;DHT22;64097;52.548;13.406;2023-07-29T06:48:33;24.60;67.80
75517;DHT22;64097;52.548;13.406;2023-07-29T06:50:59;24.60;67.80
75517;DHT22;64097;52.548;13.406;2023-07-29T06:53:26;24.60;67.70
75517;DHT22;64097;52.548;13.406;2023-07-29T06:55:52;24.70;67.80
75517;DHT22;64097;52.548;13.406;2023-07-29T06:58:18;24.70;67.80
75517;DHT22;64097;52.548;13.406;2023-07-29T07:00:44;24.80;67.80
75517;DHT22;64097;52.548;13.406;2023-07-29T07:03:10;24.80;67.70
75517;DHT22;64097;52.548;13.406;2023-07-29T07:05:35;24.80;67.60
75517;DHT22;64097;52.548;13.406;2023-07-29T07:08:01;24.90;67.60
75517;DHT22;64097;52.548;13.406;2023-07-29T07:10:27;24.90;67.50
75517;DHT22;64097;52.548;13.406;2023-07-29T07:12:52;25.00;67.20
75517;DHT22;64097;52.548;13.406;2023-07-29T07:15:18;25.10;67.20
75517;DHT22;64097;52.548;13.406;2023-07-29T07:17:44;25.10;67.20
75517;DHT22;64097;52.548;13.406;2023-07-29T07:20:10;25.20;67.20
75517;DHT22;64097;52.548;13.406;2023-07-29T07:22:36;25.20;67.00
75517;DHT22;64097;52.548;13.406;2023-07-29T07:25:02;25.30;67.00
75517;DHT22;64097;52.548;13.406;2023-07-29T07:27:27;25.30;66.90
75517;DHT22;64097;52.548;13.406;2023-07-29T07:29:53;25.30;66.90
75517;DHT22;64097;52.548;13.406;2023-07-29T07:32:19;25.40;66.80
75517;DHT22;64097;52.548;13.406;2023-07-29T07:34:44;25.40;66.50
75517;DHT22;64097;52.548;13.406;2023-07-29T07:37:10;25.50;66.40
75517;DHT22;64097;52.548;13.406;2023-07-29T07:39:35;25.50;66.40
75517;DHT22;64097;52.548;13.406;2023-07-29T07:42:01;25.50;66.40
75517;DHT22;64097;52.548;13.406;2023-07-29T07:44:27;25.60;66.50
75517;DHT22;64097;52.548;13.406;2023-07-29T07:46:53;25.60;66.30
75517;DHT22;64097;52.548;13.406;2023-07-29T07:49:22;25.70;66.20
75517;DHT22;64097;52.548;13.406;2023-07-29T07:51:47;25.70;66.10
75517;DHT22;64097;52.548;13.406;2023-07-29T07:54:13;25.80;66.10
75517;DHT22;64097;52.548;13.406;2023-07-29T07:56:39;25.80;65.70
75517;DHT22;64097;52.548;13.406;2023-07-29T07:59:05;25.80;65.60
75517;DHT22;64097;52.548;13.406;2023-07-29T08:01:38;25.80;65.60
75517;DHT22;64097;52.548;13.406;2023-07-29T08:04:04;25.90;65.70
75517;DHT22;64097;52.548;13.406;2023-07-29T08:06:31;25.90;65.40
75517;DHT22;64097;52.548;13.406;2023-07-29T08:08:57;26.00;65.70
75517;DHT22;64097;52.548;13.406;2023-07-29T08:11:23;26.10;65.10
75517;DHT22;64097;52.548;13.406;2023-07-29T08:13:49;26.10;65.10
75517;DHT22;64097;52.548;13.406;2023-07-29T08:16:15;26.10;65.10
75517;DHT22;64097;52.548;13.406;2023-07-29T08:18:40;26.10;65.00
75517;DHT22;64097;52.548;13.406;2023-07-29T08:21:06;26.10;64.70
75517;DHT22;64097;52.548;13.406;2023-07-29T08:23:35;26.10;64.50
75517;DHT22;64097;52.548;13.406;2023-07-29T08:26:03;26.20;64.70
75517;DHT22;64097;52.548;13.406;2023-07-29T08:28:34;26.20;64.50
75517;DHT22;64097;52.548;13.406;2023-07-29T08:31:01;26.20;64.30
75517;DHT22;64097;52.548;13.406;2023-07-29T08:33:28;26.30;64.40
75517;DHT22;64097;52.548;13.406;2023-07-29T08:35:54;26.30;64.30
75517;DHT22;64097;52.548;13.406;2023-07-29T08:38:20;26.40;64.10
75517;DHT22;64097;52.548;13.406;2023-07-29T08:44:06;26.40;64.00
75517;DHT22;64097;52.548;13.406;2023-07-29T08:46:33;26.50;64.10
75517;DHT22;64097;52.548;13.406;2023-07-29T08:48:59;26.50;63.80
75517;DHT22;64097;52.548;13.406;2023-07-29T08:51:27;26.50;63.80
75517;DHT22;64097;52.548;13.406;2023-07-29T08:53:53;26.50;63.70
75517;DHT22;64097;52.548;13.406;2023-07-29T08:56:19;26.60;63.80
75517;DHT22;64097;52.548;13.406;2023-07-29T08:58:45;26.70;63.60
75517;DHT22;64097;52.548;13.406;2023-07-29T09:01:12;26.70;63.40
75517;DHT22;64097;52.548;13.406;2023-07-29T09:03:37;26.70;63.20
75517;DHT22;64097;52.548;13.406;2023-07-29T09:06:03;26.80;63.10
75517;DHT22;64097;52.548;13.406;2023-07-29T09:08:29;26.80;63.10
75517;DHT22;64097;52.548;13.406;2023-07-29T09:10:55;26.80;63.00
75517;DHT22;64097;52.548;13.406;2023-07-29T09:13:21;26.80;62.90
75517;DHT22;64097;52.548;13.406;2023-07-29T09:15:47;26.90;62.80
75517;DHT22;64097;52.548;13.406;2023-07-29T09:18:18;26.90;62.90
75517;DHT22;64097;52.548;13.406;2023-07-29T09:20:47;26.90;62.80
75517;DHT22;64097;52.548;13.406;2023-07-29T09:23:13;26.90;62.70
75517;DHT22;64097;52.548;13.406;2023-07-29T09:25:40;27.00;62.60
75517;DHT22;64097;52.548;13.406;2023-07-29T09:28:13;27.00;62.30
75517;DHT22;64097;52.548;13.406;2023-07-29T09:30:40;27.10;62.40
75517;DHT22;64097;52.548;13.406;2023-07-29T09:33:07;27.10;62.20
75517;DHT22;64097;52.548;13.406;2023-07-29T09:35:37;27.20;62.10
75517;DHT22;64097;52.548;13.406;2023-07-29T09:38:04;27.20;61.70
75517;DHT22;64097;52.548;13.406;2023-07-29T09:40:38;27.30;61.70
75517;DHT22;64097;52.548;13.406;2023-07-29T09:43:05;27.30;61.80
75517;DHT22;64097;52.548;13.406;2023-07-29T09:45:34;27.40;61.60
75517;DHT22;64097;52.548;13.406;2023-07-29T09:48:01;27.40;61.50
75517;DHT22;64097;52.548;13.406;2023-07-29T09:50:28;27.50;61.40
75517;DHT22;64097;52.548;13.406;2023-07-29T09:52:55;27.50;61.10
75517;DHT22;64097;52.548;13.406;2023-07-29T09:55:24;27.50;60.90
75517;DHT22;64097;52.548;13.406;2023-07-29T09:57:58;27.50;60.80
75517;DHT22;64097;52.548;13.406;2023-07-29T10:00:30;27.60;60.50
75517;DHT22;64097;52.548;13.406;2023-07-29T10:02:57;27.60;60.50
75517;DHT22;64097;52.548;13.406;2023-07-29T10:05:27;27.60;60.40
75517;DHT22;64097;52.548;13.406;2023-07-29T10:07:54;27.60;60.40
75517;DHT22;64097;52.548;13.406;2023-07-29T10:10:20;27.70;60.20
75517;DHT22;64097;52.548;13.406;2023-07-29T10:12:46;27.70;60.20
75517;DHT22;64097;52.548;13.406;2023-07-29T10:15:13;27.70;60.30
75517;DHT22;64097;52.548;13.406;2023-07-29T10:17:40;27.70;60.10
75517;DHT22;64097;52.548;13.406;2023-07-29T10:20:08;27.70;60.10
75517;DHT22;64097;52.548;13.406;2023-07-29T10:22:42;27.80;60.00
75517;DHT22;64097;52.548;13.406;2023-07-29T10:25:16;27.80;59.60
75517;DHT22;64097;52.548;13.406;2023-07-29T10:28:01;27.80;59.00
75517;DHT22;64097;52.548;13.406;2023-07-29T10:30:30;27.80;59.20
75517;DHT22;64097;52.548;13.406;2023-07-29T10:32:58;27.80;59.20
75517;DHT22;64097;52.548;13.406;2023-07-29T10:35:24;27.80;59.20
75517;DHT22;64097;52.548;13.406;2023-07-29T10:37:51;27.80;59.20
75517;DHT22;64097;52.548;13.406;2023-07-29T10:40:19;27.80;58.90
75517;DHT22;64097;52.548;13.406;2023-07-29T10:43:11;27.80;59.10
75517;DHT22;64097;52.548;13.406;2023-07-29T10:45:38;27.80;59.20
75517;DHT22;64097;52.548;13.406;2023-07-29T10:48:39;27.80;59.40
75517;DHT22;64097;52.548;13.406;2023-07-29T10:53:46;27.90;59.30
75517;DHT22;64097;52.548;13.406;2023-07-29T10:56:12;28.00;59.10
75517;DHT22;64097;52.548;13.406;2023-07-29T10:58:38;28.00;59.00
75517;DHT22;64097;52.548;13.406;2023-07-29T11:01:12;28.00;58.80
75517;DHT22;64097;52.548;13.406;2023-07-29T11:03:38;28.00;58.70
75517;DHT22;64097;52.548;13.406;2023-07-29T11:06:04;28.00;58.50
75517;DHT22;64097;52.548;13.406;2023-07-29T11:08:31;27.90;58.50
75517;DHT22;64097;52.548;13.406;2023-07-29T11:13:29;27.90;58.10
75517;DHT22;64097;52.548;13.406;2023-07-29T11:15:55;27.80;58.00
75517;DHT22;64097;52.548;13.406;2023-07-29T11:18:29;27.80;58.10
75517;DHT22;64097;52.548;13.406;2023-07-29T11:20:56;27.70;58.00
75517;DHT22;64097;52.548;13.406;2023-07-29T11:23:28;27.70;59.80
75517;DHT22;64097;52.548;13.406;2023-07-29T11:25:54;27.50;61.50
75517;DHT22;64097;52.548;13.406;2023-07-29T11:28:20;27.40;61.70
75517;DHT22;64097;52.548;13.406;2023-07-29T11:30:49;27.20;61.50
75517;DHT22;64097;52.548;13.406;2023-07-29T11:33:20;27.00;61.80
75517;DHT22;64097;52.548;13.406;2023-07-29T11:35:46;26.80;62.20
75517;DHT22;64097;52.548;13.406;2023-07-29T11:38:15;26.70;62.70
75517;DHT22;64097;52.548;13.406;2023-07-29T11:40:41;26.60;63.90
75517;DHT22;64097;52.548;13.406;2023-07-29T11:43:07;26.50;63.20
75517;DHT22;64097;52.548;13.406;2023-07-29T11:45:33;26.40;63.30
75517;DHT22;64097;52.548;13.406;2023-07-29T11:48:01;26.40;63.40
75517;DHT22;64097;52.548;13.406;2023-07-29T11:50:27;26.30;63.50
75517;DHT22;64097;52.548;13.406;2023-07-29T11:52:52;26.30;63.80
75517;DHT22;64097;52.548;13.406;2023-07-29T11:55:19;26.30;63.90
75517;DHT22;64097;52.548;13.406;2023-07-29T11:57:50;26.30;63.60
75517;DHT22;64097;52.548;13.406;2023-07-29T12:00:16;26.30;63.70
75517;DHT22;64097;52.548;13.406;2023-07-29T12:02:45;26.30;63.70
75517;DHT22;64097;52.548;13.406;2023-07-29T12:05:11;26.30;64.00
75517;DHT22;64097;52.548;13.406;2023-07-29T12:07:42;26.30;63.80
75517;DHT22;64097;52.548;13.406;2023-07-29T12:10:09;26.30;63.90
75517;DHT22;64097;52.548;13.406;2023-07-29T12:12:45;26.30;63.80
75517;DHT22;64097;52.548;13.406;2023-07-29T12:15:11;26.30;63.80
75517;DHT22;64097;52.548;13.406;2023-07-29T12:17:41;26.30;64.00
75517;DHT22;64097;52.548;13.406;2023-07-29T12:20:10;26.30;64.30
75517;DHT22;64097;52.548;13.406;2023-07-29T12:22:36;26.30;64.20
75517;DHT22;64097;52.548;13.406;2023-07-29T12:25:03;26.30;64.00
75517;DHT22;64097;52.548;13.406;2023-07-29T12:27:30;26.30;64.20
75517;DHT22;64097;52.548;13.406;2023-07-29T12:29:57;26.30;64.30
75517;DHT22;64097;52.548;13.406;2023-07-29T12:32:25;26.40;64.60
75517;DHT22;64097;52.548;13.406;2023-07-29T12:34:53;26.30;64.60
75517;DHT22;64097;52.548;13.406;2023-07-29T12:37:19;26.40;65.70
75517;DHT22;64097;52.548;13.406;2023-07-29T12:39:45;26.40;64.90
75517;DHT22;64097;52.548;13.406;2023-07-29T12:42:11;26.40;64.90
75517;DHT22;64097;52.548;13.406;2023-07-29T12:44:38;26.40;65.10
75517;DHT22;64097;52.548;13.406;2023-07-29T12:47:05;26.40;65.20
75517;DHT22;64097;52.548;13.406;2023-07-29T12:49:31;26.50;65.40
75517;DHT22;64097;52.548;13.406;2023-07-29T12:51:58;26.50;65.60
75517;DHT22;64097;52.548;13.406;2023-07-29T12:54:24;26.50;65.50
75517;DHT22;64097;52.548;13.406;2023-07-29T12:56:50;26.60;65.50
75517;DHT22;64097;52.548;13.406;2023-07-29T12:59:16;26.70;65.40
75517;DHT22;64097;52.548;13.406;2023-07-29T13:01:41;26.70;65.30
75517;DHT22;64097;52.548;13.406;2023-07-29T13:04:07;26.80;65.20
75517;DHT22;64097;52.548;13.406;2023-07-29T13:06:33;26.90;65.10
75517;DHT22;64097;52.548;13.406;2023-07-29T13:08:58;26.90;64.90
75517;DHT22;64097;52.548;13.406;2023-07-29T13:11:24;27.00;64.80
75517;DHT22;64097;52.548;13.406;2023-07-29T13:13:50;27.10;64.90
75517;DHT22;64097;52.548;13.406;2023-07-29T13:16:15;27.10;64.70
75517;DHT22;64097;52.548;13.406;2023-07-29T13:18:43;27.10;64.60
75517;DHT22;64097;52.548;13.406;2023-07-29T13:21:09;27.20;64.70
75517;DHT22;64097;52.548;13.406;2023-07-29T13:23:34;27.20;64.60
75517;DHT22;64097;52.548;13.406;2023-07-29T13:26:00;27.30;64.60
75517;DHT22;64097;52.548;13.406;2023-07-29T13:28:26;27.30;64.50
75517;DHT22;64097;52.548;13.406;2023-07-29T13:30:52;27.30;64.50
75517;DHT22;64097;52.548;13.406;2023-07-29T13:33:17;27.30;64.50
75517;DHT22;64097;52.548;13.406;2023-07-29T13:35:43;27.30;64.50
75517;DHT22;64097;52.548;13.406;2023-07-29T13:38:09;27.30;64.60
75517;DHT22;64097;52.548;13.406;2023-07-29T13:40:35;27.30;64.50
75517;DHT22;64097;52.548;13.406;2023-07-29T13:43:00;27.40;64.60
75517;DHT22;64097;52.548;13.406;2023-07-29T13:45:26;27.40;64.50
75517;DHT22;64097;52.548;13.406;2023-07-29T13:47:52;27.50;64.60
75517;DHT22;64097;52.548;13.406;2023-07-29T13:50:17;27.50;64.40
75517;DHT22;64097;52.548;13.406;2023-07-29T13:52:43;27.60;64.30
75517;DHT22;64097;52.548;13.406;2023-07-29T13:55:09;27.60;64.20
75517;DHT22;64097;52.548;13.406;2023-07-29T13:57:37;27.70;64.00
75517;DHT22;64097;52.548;13.406;2023-07-29T14:00:02;27.70;63.40
